sensor_id;sensor_type;location;lat;lon;timestamp;P1;durP1;ratioP1;P2;durP2;ratioP2
20179;SDS011;10249;48.900;9.090;2022-09-17T00:01:13;6.90;;;6.70;;
20179;SDS011;10249;48.900;9.090;2022-09-17T00:03:41;7.03;;;6.53;;
20179;SDS011;10249;48.900;9.090;2022-09-17T00:06:11;6.40;;;6.20;;
20179;SDS011;10249;48.900;9.090;2022-09-17T00:08:39;6.43;;;6.23;;
20179;SDS011;10249;48.900;9.090;2022-09-17T00:11:06;7.50;;;7.10;;
20179;SDS011;10249;48.900;9.090;2022-09-17T00:13:34;6.60;;;6.40;;
20179;SDS011;10249;48.900;9.090;2022-09-17T00:16:01;6.90;;;6.60;;
20179;SDS011;10249;48.900;9.090;2022-09-17T00:18:28;6.87;;;6.57;;
20179;SDS011;10249;48.900;9.090;2022-09-17T00:20:55;6.73;;;6.37;;
20179;SDS011;10249;48.900;9.090;2022-09-17T00:23:24;6.77;;;6.57;;
20179;SDS011;10249;48.900;9.090;2022-09-17T00:25:51;6.40;;;6.20;;
20179;SDS011;10249;48.900;9.090;2022-09-17T00:28:18;6.37;;;6.17;;
20179;SDS011;10249;48.900;9.090;2022-09-17T00:30:45;6.90;;;6.60;;
20179;SDS011;10249;48.900;9.090;2022-09-17T00:33:13;6.87;;;6.47;;
20179;SDS011;10249;48.900;9.090;2022-09-17T00:35:40;6.47;;;6.17;;
20179;SDS011;10249;48.900;9.090;2022-09-17T00:38:07;6.97;;;6.67;;
20179;SDS011;10249;48.900;9.090;2022-09-17T00:40:36;6.60;;;6.30;;
20179;SDS011;10249;48.900;9.090;2022-09-17T00:43:03;6.83;;;6.43;;
20179;SDS011;10249;48.900;9.090;2022-09-17T00:45:30;6.40;;;6.13;;
20179;SDS011;10249;48.900;9.090;2022-09-17T00:47:58;6.07;;;5.87;;
20179;SDS011;10249;48.900;9.090;2022-09-17T00:50:28;6.77;;;6.37;;
20179;SDS011;10249;48.900;9.090;2022-09-17T00:52:56;6.03;;;5.83;;
20179;SDS011;10249;48.900;9.090;2022-09-17T00:55:25;5.90;;;5.70;;
20179;SDS011;10249;48.900;9.090;2022-09-17T00:57:55;6.50;;;6.07;;
20179;SDS011;10249;48.900;9.090;2022-09-17T01:00:24;6.37;;;6.17;;
20179;SDS011;10249;48.900;9.090;2022-09-17T01:02:51;6.27;;;5.77;;
20179;SDS011;10249;48.900;9.090;2022-09-17T01:05:19;5.60;;;5.30;;
20179;SDS011;10249;48.900;9.090;2022-09-17T01:07:51;5.40;;;5.20;;
20179;SDS011;10249;48.900;9.090;2022-09-17T01:10:25;5.73;;;5.43;;
20179;SDS011;10249;48.900;9.090;2022-09-17T01:13:04;4.73;;;4.63;;
20179;SDS011;10249;48.900;9.090;2022-09-17T01:15:34;5.17;;;5.00;;
20179;SDS011;10249;48.900;9.090;2022-09-17T01:18:06;4.60;;;4.50;;
20179;SDS011;10249;48.900;9.090;2022-09-17T01:20:54;5.40;;;5.20;;
20179;SDS011;10249;48.900;9.090;2022-09-17T01:23:32;5.70;;;5.40;;
20179;SDS011;10249;48.900;9.090;2022-09-17T01:26:07;5.77;;;5.47;;
20179;SDS011;10249;48.900;9.090;2022-09-17T01:28:42;5.20;;;5.00;;
20179;SDS011;10249;48.900;9.090;2022-09-17T01:33:57;5.00;;;4.80;;
20179;SDS011;10249;48.900;9.090;2022-09-17T01:36:33;5.43;;;5.23;;
20179;SDS011;10249;48.900;9.090;2022-09-17T01:39:02;8.23;;;6.00;;
20179;SDS011;10249;48.900;9.090;2022-09-17T01:41:33;5.60;;;5.37;;
20179;SDS011;10249;48.900;9.090;2022-09-17T01:44:03;5.73;;;5.40;;
20179;SDS011;10249;48.900;9.090;2022-09-17T01:46:32;6.30;;;6.00;;
20179;SDS011;10249;48.900;9.090;2022-09-17T01:49:03;5.83;;;5.63;;
20179;SDS011;10249;48.900;9.090;2022-09-17T01:51:34;6.93;;;6.60;;
20179;SDS011;10249;48.900;9.090;2022-09-17T01:54:03;5.60;;;5.40;;
20179;SDS011;10249;48.900;9.090;2022-09-17T01:56:32;6.00;;;5.70;;
20179;SDS011;10249;48.900;9.090;2022-09-17T01:59:01;5.63;;;5.43;;
20179;SDS011;10249;48.900;9.090;2022-09-17T02:01:30;6.30;;;6.00;;
20179;SDS011;10249;48.900;9.090;2022-09-17T02:03:58;5.90;;;5.70;;
20179;SDS011;10249;48.900;9.090;2022-09-17T02:06:29;7.30;;;6.70;;
20179;SDS011;10249;48.900;9.090;2022-09-17T02:08:58;5.70;;;5.50;;
20179;SDS011;10249;48.900;9.090;2022-09-17T02:11:27;7.37;;;6.77;;
20179;SDS011;10249;48.900;9.090;2022-09-17T02:13:55;6.80;;;6.50;;
20179;SDS011;10249;48.900;9.090;2022-09-17T02:16:24;6.40;;;6.20;;
20179;SDS011;10249;48.900;9.090;2022-09-17T02:18:53;6.93;;;6.63;;
20179;SDS011;10249;48.900;9.090;2022-09-17T02:21:23;6.77;;;6.47;;
20179;SDS011;10249;48.900;9.090;2022-09-17T02:23:56;6.10;;;5.90;;
20179;SDS011;10249;48.900;9.090;2022-09-17T02:26:27;6.93;;;6.60;;
20179;SDS011;10249;48.900;9.090;2022-09-17T02:28:56;6.77;;;6.40;;
20179;SDS011;10249;48.900;9.090;2022-09-17T02:31:24;5.83;;;5.63;;
20179;SDS011;10249;48.900;9.090;2022-09-17T02:33:52;6.80;;;6.40;;
20179;SDS011;10249;48.900;9.090;2022-09-17T02:36:21;6.43;;;6.23;;
20179;SDS011;10249;48.900;9.090;2022-09-17T02:38:53;6.00;;;5.80;;
20179;SDS011;10249;48.900;9.090;2022-09-17T02:41:22;5.60;;;5.40;;
20179;SDS011;10249;48.900;9.090;2022-09-17T02:43:53;6.10;;;5.90;;
20179;SDS011;10249;48.900;9.090;2022-09-17T02:46:31;6.07;;;5.87;;
20179;SDS011;10249;48.900;9.090;2022-09-17T02:51:55;6.23;;;5.87;;
20179;SDS011;10249;48.900;9.090;2022-09-17T02:54:25;6.10;;;5.63;;
20179;SDS011;10249;48.900;9.090;2022-09-17T02:56:58;5.67;;;5.47;;
20179;SDS011;10249;48.900;9.090;2022-09-17T02:59:30;5.00;;;4.90;;
20179;SDS011;10249;48.900;9.090;2022-09-17T03:01:59;5.83;;;5.43;;
20179;SDS011;10249;48.900;9.090;2022-09-17T03:04:27;5.23;;;5.03;;
20179;SDS011;10249;48.900;9.090;2022-09-17T03:06:54;6.10;;;5.60;;
20179;SDS011;10249;48.900;9.090;2022-09-17T03:09:23;5.27;;;5.07;;
20179;SDS011;10249;48.900;9.090;2022-09-17T03:11:50;5.30;;;5.10;;
20179;SDS011;10249;48.900;9.090;2022-09-17T03:14:18;5.23;;;5.03;;
20179;SDS011;10249;48.900;9.090;2022-09-17T03:16:46;4.77;;;4.57;;
20179;SDS011;10249;48.900;9.090;2022-09-17T03:19:13;5.53;;;5.17;;
20179;SDS011;10249;48.900;9.090;2022-09-17T03:21:40;5.40;;;5.13;;
20179;SDS011;10249;48.900;9.090;2022-09-17T03:24:07;5.03;;;4.83;;
20179;SDS011;10249;48.900;9.090;2022-09-17T03:26:35;4.40;;;4.30;;
20179;SDS011;10249;48.900;9.090;2022-09-17T03:29:02;5.27;;;5.07;;
20179;SDS011;10249;48.900;9.090;2022-09-17T03:31:31;5.30;;;4.93;;
20179;SDS011;10249;48.900;9.090;2022-09-17T03:33:58;4.10;;;4.00;;
20179;SDS011;10249;48.900;9.090;2022-09-17T03:36:25;4.70;;;4.50;;
20179;SDS011;10249;48.900;9.090;2022-09-17T03:38:52;5.63;;;5.27;;
20179;SDS011;10249;48.900;9.090;2022-09-17T03:41:19;5.50;;;5.20;;
20179;SDS011;10249;48.900;9.090;2022-09-17T03:43:46;5.83;;;5.23;;
20179;SDS011;10249;48.900;9.090;2022-09-17T03:46:13;4.13;;;4.03;;
20179;SDS011;10249;48.900;9.090;2022-09-17T03:48:42;4.73;;;4.53;;
20179;SDS011;10249;48.900;9.090;2022-09-17T03:51:09;8.93;;;4.47;;
20179;SDS011;10249;48.900;9.090;2022-09-17T03:53:36;4.27;;;4.07;;
20179;SDS011;10249;48.900;9.090;2022-09-17T03:56:04;3.80;;;3.70;;
20179;SDS011;10249;48.900;9.090;2022-09-17T03:58:31;5.20;;;4.80;;
20179;SDS011;10249;48.900;9.090;2022-09-17T04:00:59;3.77;;;3.67;;
20179;SDS011;10249;48.900;9.090;2022-09-17T04:03:27;4.67;;;4.40;;
20179;SDS011;10249;48.900;9.090;2022-09-17T04:05:56;6.20;;;5.30;;
20179;SDS011;10249;48.900;9.090;2022-09-17T04:08:23;6.40;;;5.87;;
20179;SDS011;10249;48.900;9.090;2022-09-17T04:10:50;5.53;;;5.17;;
20179;SDS011;10249;48.900;9.090;2022-09-17T04:13:17;4.50;;;4.30;;
20179;SDS011;10249;48.900;9.090;2022-09-17T04:15:45;5.57;;;5.07;;
20179;SDS011;10249;48.900;9.090;2022-09-17T04:18:12;5.03;;;4.73;;
20179;SDS011;10249;48.900;9.090;2022-09-17T04:20:39;4.40;;;4.27;;
20179;SDS011;10249;48.900;9.090;2022-09-17T04:23:09;4.77;;;4.57;;
20179;SDS011;10249;48.900;9.090;2022-09-17T04:25:36;4.93;;;4.73;;
20179;SDS011;10249;48.900;9.090;2022-09-17T04:28:03;4.93;;;4.73;;
20179;SDS011;10249;48.900;9.090;2022-09-17T04:30:30;5.27;;;5.07;;
20179;SDS011;10249;48.900;9.090;2022-09-17T04:32:57;5.90;;;5.60;;
20179;SDS011;10249;48.900;9.090;2022-09-17T04:35:24;7.00;;;6.50;;
20179;SDS011;10249;48.900;9.090;2022-09-17T04:37:52;7.07;;;6.20;;
20179;SDS011;10249;48.900;9.090;2022-09-17T04:40:20;6.53;;;6.17;;
20179;SDS011;10249;48.900;9.090;2022-09-17T04:42:47;6.70;;;6.20;;
20179;SDS011;10249;48.900;9.090;2022-09-17T04:45:14;7.40;;;6.90;;
20179;SDS011;10249;48.900;9.090;2022-09-17T04:47:41;7.17;;;6.60;;
20179;SDS011;10249;48.900;9.090;2022-09-17T04:50:08;6.60;;;6.27;;
20179;SDS011;10249;48.900;9.090;2022-09-17T04:52:36;6.00;;;5.50;;
20179;SDS011;10249;48.900;9.090;2022-09-17T04:55:03;5.93;;;5.50;;
20179;SDS011;10249;48.900;9.090;2022-09-17T04:57:31;5.90;;;5.60;;
20179;SDS011;10249;48.900;9.090;2022-09-17T04:59:58;7.03;;;6.60;;
20179;SDS011;10249;48.900;9.090;2022-09-17T05:02:25;5.93;;;5.63;;
20179;SDS011;10249;48.900;9.090;2022-09-17T05:04:52;5.83;;;5.53;;
20179;SDS011;10249;48.900;9.090;2022-09-17T05:07:20;6.27;;;5.97;;
20179;SDS011;10249;48.900;9.090;2022-09-17T05:09:47;6.87;;;6.27;;
20179;SDS011;10249;48.900;9.090;2022-09-17T05:12:14;7.00;;;6.40;;
20179;SDS011;10249;48.900;9.090;2022-09-17T05:14:43;6.90;;;6.30;;
20179;SDS011;10249;48.900;9.090;2022-09-17T05:17:10;9.73;;;6.30;;
20179;SDS011;10249;48.900;9.090;2022-09-17T05:19:37;7.93;;;5.93;;
20179;SDS011;10249;48.900;9.090;2022-09-17T05:22:04;6.23;;;5.67;;
20179;SDS011;10249;48.900;9.090;2022-09-17T05:24:31;6.17;;;5.60;;
20179;SDS011;10249;48.900;9.090;2022-09-17T05:27:01;6.77;;;6.27;;
20179;SDS011;10249;48.900;9.090;2022-09-17T05:29:28;7.63;;;7.00;;
20179;SDS011;10249;48.900;9.090;2022-09-17T05:31:57;6.03;;;5.63;;
20179;SDS011;10249;48.900;9.090;2022-09-17T05:34:24;6.93;;;6.27;;
20179;SDS011;10249;48.900;9.090;2022-09-17T05:36:51;6.13;;;5.73;;
20179;SDS011;10249;48.900;9.090;2022-09-17T05:39:18;5.77;;;5.47;;
20179;SDS011;10249;48.900;9.090;2022-09-17T05:41:46;6.30;;;5.90;;
20179;SDS011;10249;48.900;9.090;2022-09-17T05:44:13;6.13;;;5.70;;
20179;SDS011;10249;48.900;9.090;2022-09-17T05:46:40;7.40;;;6.80;;
20179;SDS011;10249;48.900;9.090;2022-09-17T05:49:08;5.87;;;5.57;;
20179;SDS011;10249;48.900;9.090;2022-09-17T05:51:36;7.47;;;6.77;;
20179;SDS011;10249;48.900;9.090;2022-09-17T05:54:03;6.93;;;6.53;;
20179;SDS011;10249;48.900;9.090;2022-09-17T05:56:30;5.77;;;5.37;;
20179;SDS011;10249;48.900;9.090;2022-09-17T05:58:57;7.00;;;6.50;;
20179;SDS011;10249;48.900;9.090;2022-09-17T06:01:24;7.97;;;7.23;;
20179;SDS011;10249;48.900;9.090;2022-09-17T06:03:51;6.97;;;6.47;;
20179;SDS011;10249;48.900;9.090;2022-09-17T06:06:20;7.77;;;7.17;;
20179;SDS011;10249;48.900;9.090;2022-09-17T06:08:47;6.47;;;5.97;;
20179;SDS011;10249;48.900;9.090;2022-09-17T06:11:14;7.87;;;7.23;;
20179;SDS011;10249;48.900;9.090;2022-09-17T06:13:41;8.23;;;7.53;;
20179;SDS011;10249;48.900;9.090;2022-09-17T06:16:08;6.63;;;6.33;;
20179;SDS011;10249;48.900;9.090;2022-09-17T06:18:35;6.77;;;6.37;;
20179;SDS011;10249;48.900;9.090;2022-09-17T06:21:02;8.40;;;7.70;;
20179;SDS011;10249;48.900;9.090;2022-09-17T06:23:32;9.43;;;8.80;;
20179;SDS011;10249;48.900;9.090;2022-09-17T06:26:00;8.73;;;8.03;;
20179;SDS011;10249;48.900;9.090;2022-09-17T06:28:27;7.60;;;7.20;;
20179;SDS011;10249;48.900;9.090;2022-09-17T06:30:58;8.37;;;7.57;;
20179;SDS011;10249;48.900;9.090;2022-09-17T06:33:25;7.50;;;7.20;;
20179;SDS011;10249;48.900;9.090;2022-09-17T06:35:55;8.30;;;7.80;;
20179;SDS011;10249;48.900;9.090;2022-09-17T06:38:24;7.40;;;7.10;;
20179;SDS011;10249;48.900;9.090;2022-09-17T06:40:52;8.53;;;7.87;;
20179;SDS011;10249;48.900;9.090;2022-09-17T06:43:19;7.07;;;6.70;;
20179;SDS011;10249;48.900;9.090;2022-09-17T06:45:50;8.73;;;8.03;;
20179;SDS011;10249;48.900;9.090;2022-09-17T06:48:17;8.67;;;7.97;;
20179;SDS011;10249;48.900;9.090;2022-09-17T06:50:44;7.83;;;7.20;;
20179;SDS011;10249;48.900;9.090;2022-09-17T06:53:11;7.80;;;6.87;;
20179;SDS011;10249;48.900;9.090;2022-09-17T06:55:38;7.40;;;6.70;;
20179;SDS011;10249;48.900;9.090;2022-09-17T06:58:07;7.23;;;6.67;;
20179;SDS011;10249;48.900;9.090;2022-09-17T07:00:34;7.83;;;7.13;;
20179;SDS011;10249;48.900;9.090;2022-09-17T07:03:01;7.20;;;6.70;;
20179;SDS011;10249;48.900;9.090;2022-09-17T07:05:28;6.97;;;6.47;;
20179;SDS011;10249;48.900;9.090;2022-09-17T07:07:56;6.50;;;6.00;;
20179;SDS011;10249;48.900;9.090;2022-09-17T07:10:26;5.23;;;4.93;;
20179;SDS011;10249;48.900;9.090;2022-09-17T07:12:53;4.90;;;4.60;;
20179;SDS011;10249;48.900;9.090;2022-09-17T07:15:21;5.90;;;5.43;;
20179;SDS011;10249;48.900;9.090;2022-09-17T07:17:48;6.50;;;5.87;;
20179;SDS011;10249;48.900;9.090;2022-09-17T07:20:15;7.67;;;5.97;;
20179;SDS011;10249;48.900;9.090;2022-09-17T07:22:43;8.53;;;5.80;;
20179;SDS011;10249;48.900;9.090;2022-09-17T07:25:10;5.73;;;5.23;;
20179;SDS011;10249;48.900;9.090;2022-09-17T07:27:37;8.73;;;5.17;;
20179;SDS011;10249;48.900;9.090;2022-09-17T07:30:04;6.07;;;5.50;;
20179;SDS011;10249;48.900;9.090;2022-09-17T07:32:33;5.33;;;4.83;;
20179;SDS011;10249;48.900;9.090;2022-09-17T07:35:00;5.50;;;4.90;;
20179;SDS011;10249;48.900;9.090;2022-09-17T07:37:27;5.13;;;4.73;;
20179;SDS011;10249;48.900;9.090;2022-09-17T07:39:54;4.20;;;3.90;;
20179;SDS011;10249;48.900;9.090;2022-09-17T07:42:21;6.00;;;5.40;;
20179;SDS011;10249;48.900;9.090;2022-09-17T07:44:48;6.17;;;5.07;;
20179;SDS011;10249;48.900;9.090;2022-09-17T07:47:15;3.60;;;3.40;;
20179;SDS011;10249;48.900;9.090;2022-09-17T07:49:44;5.93;;;5.43;;
20179;SDS011;10249;48.900;9.090;2022-09-17T07:52:11;6.23;;;4.60;;
20179;SDS011;10249;48.900;9.090;2022-09-17T07:54:38;4.80;;;4.23;;
20179;SDS011;10249;48.900;9.090;2022-09-17T07:57:05;5.03;;;4.70;;
20179;SDS011;10249;48.900;9.090;2022-09-17T07:59:32;5.20;;;4.17;;
20179;SDS011;10249;48.900;9.090;2022-09-17T08:01:59;5.27;;;4.80;;
20179;SDS011;10249;48.900;9.090;2022-09-17T08:04:26;6.87;;;5.47;;
20179;SDS011;10249;48.900;9.090;2022-09-17T08:06:54;6.07;;;5.73;;
20179;SDS011;10249;48.900;9.090;2022-09-17T08:09:21;3.20;;;3.10;;
20179;SDS011;10249;48.900;9.090;2022-09-17T08:11:48;9.87;;;5.60;;
20179;SDS011;10249;48.900;9.090;2022-09-17T08:14:15;6.43;;;5.90;;
20179;SDS011;10249;48.900;9.090;2022-09-17T08:16:43;6.80;;;6.20;;
20179;SDS011;10249;48.900;9.090;2022-09-17T08:19:11;6.13;;;5.67;;
20179;SDS011;10249;48.900;9.090;2022-09-17T08:21:38;7.77;;;7.03;;
20179;SDS011;10249;48.900;9.090;2022-09-17T08:24:06;8.67;;;8.07;;
20179;SDS011;10249;48.900;9.090;2022-09-17T08:26:33;7.10;;;6.43;;
20179;SDS011;10249;48.900;9.090;2022-09-17T08:29:00;6.30;;;5.90;;
20179;SDS011;10249;48.900;9.090;2022-09-17T08:31:28;8.23;;;7.63;;
20179;SDS011;10249;48.900;9.090;2022-09-17T08:33:57;6.70;;;6.30;;
20179;SDS011;10249;48.900;9.090;2022-09-17T08:36:25;7.20;;;6.60;;
20179;SDS011;10249;48.900;9.090;2022-09-17T08:38:52;9.00;;;7.90;;
20179;SDS011;10249;48.900;9.090;2022-09-17T08:41:23;8.40;;;7.80;;
20179;SDS011;10249;48.900;9.090;2022-09-17T08:43:57;8.10;;;7.43;;
20179;SDS011;10249;48.900;9.090;2022-09-17T08:46:26;9.20;;;8.50;;
20179;SDS011;10249;48.900;9.090;2022-09-17T08:48:55;9.60;;;8.77;;
20179;SDS011;10249;48.900;9.090;2022-09-17T08:51:30;9.27;;;8.37;;
20179;SDS011;10249;48.900;9.090;2022-09-17T08:54:03;9.70;;;9.00;;
20179;SDS011;10249;48.900;9.090;2022-09-17T08:56:36;8.47;;;8.07;;
20179;SDS011;10249;48.900;9.090;2022-09-17T08:59:10;9.40;;;8.80;;
20179;SDS011;10249;48.900;9.090;2022-09-17T09:01:41;9.40;;;8.90;;
20179;SDS011;10249;48.900;9.090;2022-09-17T09:04:15;10.67;;;9.93;;
20179;SDS011;10249;48.900;9.090;2022-09-17T09:06:45;10.70;;;10.07;;
20179;SDS011;10249;48.900;9.090;2022-09-17T09:09:15;10.70;;;9.90;;
20179;SDS011;10249;48.900;9.090;2022-09-17T09:11:44;10.90;;;10.23;;
20179;SDS011;10249;48.900;9.090;2022-09-17T09:14:14;10.33;;;9.50;;
20179;SDS011;10249;48.900;9.090;2022-09-17T09:16:44;11.47;;;10.77;;
20179;SDS011;10249;48.900;9.090;2022-09-17T09:19:16;9.13;;;8.53;;
20179;SDS011;10249;48.900;9.090;2022-09-17T09:21:46;9.50;;;9.10;;
20179;SDS011;10249;48.900;9.090;2022-09-17T09:24:19;10.47;;;9.77;;
20179;SDS011;10249;48.900;9.090;2022-09-17T09:26:51;9.47;;;9.07;;
20179;SDS011;10249;48.900;9.090;2022-09-17T09:29:34;11.70;;;10.70;;
20179;SDS011;10249;48.900;9.090;2022-09-17T09:32:08;11.27;;;10.53;;
20179;SDS011;10249;48.900;9.090;2022-09-17T09:34:39;11.23;;;10.40;;
20179;SDS011;10249;48.900;9.090;2022-09-17T09:37:10;11.20;;;10.20;;
20179;SDS011;10249;48.900;9.090;2022-09-17T09:39:38;9.87;;;9.37;;
20179;SDS011;10249;48.900;9.090;2022-09-17T09:42:09;11.30;;;10.43;;
20179;SDS011;10249;48.900;9.090;2022-09-17T09:44:39;11.27;;;10.67;;
20179;SDS011;10249;48.900;9.090;2022-09-17T09:47:10;11.53;;;10.83;;
20179;SDS011;10249;48.900;9.090;2022-09-17T09:52:30;8.90;;;8.60;;
20179;SDS011;10249;48.900;9.090;2022-09-17T09:55:03;10.87;;;10.27;;
20179;SDS011;10249;48.900;9.090;2022-09-17T09:57:38;11.10;;;10.37;;
20179;SDS011;10249;48.900;9.090;2022-09-17T10:00:23;11.23;;;10.60;;
20179;SDS011;10249;48.900;9.090;2022-09-17T10:02:51;11.47;;;10.77;;
20179;SDS011;10249;48.900;9.090;2022-09-17T10:05:19;11.83;;;10.97;;
20179;SDS011;10249;48.900;9.090;2022-09-17T10:07:46;11.70;;;11.10;;
20179;SDS011;10249;48.900;9.090;2022-09-17T10:10:13;11.20;;;10.60;;
20179;SDS011;10249;48.900;9.090;2022-09-17T10:12:41;11.27;;;10.77;;
20179;SDS011;10249;48.900;9.090;2022-09-17T10:18:08;12.20;;;11.60;;
20179;SDS011;10249;48.900;9.090;2022-09-17T10:20:38;13.13;;;12.13;;
20179;SDS011;10249;48.900;9.090;2022-09-17T10:23:14;13.23;;;12.37;;
20179;SDS011;10249;48.900;9.090;2022-09-17T10:25:41;11.00;;;10.60;;
20179;SDS011;10249;48.900;9.090;2022-09-17T10:28:22;12.40;;;11.70;;
20179;SDS011;10249;48.900;9.090;2022-09-17T10:30:57;13.33;;;12.47;;
20179;SDS011;10249;48.900;9.090;2022-09-17T10:33:25;13.67;;;12.97;;
20179;SDS011;10249;48.900;9.090;2022-09-17T10:35:54;13.83;;;13.03;;
20179;SDS011;10249;48.900;9.090;2022-09-17T10:38:25;12.87;;;12.10;;
20179;SDS011;10249;48.900;9.090;2022-09-17T10:40:53;14.57;;;13.50;;
20179;SDS011;10249;48.900;9.090;2022-09-17T10:43:33;13.90;;;13.20;;
20179;SDS011;10249;48.900;9.090;2022-09-17T10:46:00;14.53;;;13.77;;
20179;SDS011;10249;48.900;9.090;2022-09-17T10:48:29;13.80;;;13.10;;
20179;SDS011;10249;48.900;9.090;2022-09-17T10:50:57;12.60;;;11.90;;
20179;SDS011;10249;48.900;9.090;2022-09-17T10:53:26;11.73;;;11.00;;
20179;SDS011;10249;48.900;9.090;2022-09-17T10:55:57;12.80;;;12.10;;
20179;SDS011;10249;48.900;9.090;2022-09-17T10:58:31;12.87;;;12.03;;
20179;SDS011;10249;48.900;9.090;2022-09-17T11:01:05;11.53;;;11.13;;
20179;SDS011;10249;48.900;9.090;2022-09-17T11:03:50;13.67;;;13.00;;
20179;SDS011;10249;48.900;9.090;2022-09-17T11:09:13;13.90;;;13.20;;
20179;SDS011;10249;48.900;9.090;2022-09-17T11:11:44;14.20;;;13.60;;
20179;SDS011;10249;48.900;9.090;2022-09-17T11:14:16;15.43;;;14.37;;
20179;SDS011;10249;48.900;9.090;2022-09-17T11:16:47;16.13;;;15.23;;
20179;SDS011;10249;48.900;9.090;2022-09-17T11:19:21;14.90;;;14.30;;
20179;SDS011;10249;48.900;9.090;2022-09-17T11:21:51;15.10;;;14.30;;
20179;SDS011;10249;48.900;9.090;2022-09-17T11:24:31;15.47;;;14.67;;
20179;SDS011;10249;48.900;9.090;2022-09-17T11:27:10;14.57;;;13.97;;
20179;SDS011;10249;48.900;9.090;2022-09-17T11:29:43;15.50;;;14.70;;
20179;SDS011;10249;48.900;9.090;2022-09-17T11:32:20;15.27;;;14.47;;
20179;SDS011;10249;48.900;9.090;2022-09-17T11:34:53;15.20;;;14.40;;
20179;SDS011;10249;48.900;9.090;2022-09-17T11:37:24;14.93;;;14.23;;
20179;SDS011;10249;48.900;9.090;2022-09-17T11:39:53;15.37;;;14.47;;
20179;SDS011;10249;48.900;9.090;2022-09-17T11:42:21;14.90;;;14.07;;
20179;SDS011;10249;48.900;9.090;2022-09-17T11:44:50;13.33;;;12.80;;
20179;SDS011;10249;48.900;9.090;2022-09-17T11:47:22;12.80;;;12.27;;
20179;SDS011;10249;48.900;9.090;2022-09-17T11:49:51;12.93;;;12.27;;
20179;SDS011;10249;48.900;9.090;2022-09-17T11:52:21;13.53;;;12.83;;
20179;SDS011;10249;48.900;9.090;2022-09-17T11:54:51;12.67;;;12.10;;
20179;SDS011;10249;48.900;9.090;2022-09-17T11:57:20;13.20;;;12.60;;
20179;SDS011;10249;48.900;9.090;2022-09-17T11:59:49;13.57;;;12.63;;
20179;SDS011;10249;48.900;9.090;2022-09-17T12:02:19;11.40;;;10.80;;
20179;SDS011;10249;48.900;9.090;2022-09-17T12:04:51;11.60;;;11.10;;
20179;SDS011;10249;48.900;9.090;2022-09-17T12:07:23;12.00;;;11.40;;
20179;SDS011;10249;48.900;9.090;2022-09-17T12:09:52;10.40;;;9.90;;
20179;SDS011;10249;48.900;9.090;2022-09-17T12:12:21;10.50;;;9.90;;
20179;SDS011;10249;48.900;9.090;2022-09-17T12:14:50;9.03;;;8.73;;
20179;SDS011;10249;48.900;9.090;2022-09-17T12:17:19;9.80;;;9.50;;
20179;SDS011;10249;48.900;9.090;2022-09-17T12:19:49;10.30;;;9.70;;
20179;SDS011;10249;48.900;9.090;2022-09-17T12:22:20;11.67;;;10.77;;
20179;SDS011;10249;48.900;9.090;2022-09-17T12:24:48;9.60;;;9.30;;
20179;SDS011;10249;48.900;9.090;2022-09-17T12:27:17;11.33;;;10.73;;
20179;SDS011;10249;48.900;9.090;2022-09-17T12:29:50;12.03;;;11.53;;
20179;SDS011;10249;48.900;9.090;2022-09-17T12:32:24;12.33;;;11.40;;
20179;SDS011;10249;48.900;9.090;2022-09-17T12:34:57;11.50;;;11.00;;
20179;SDS011;10249;48.900;9.090;2022-09-17T12:37:29;11.43;;;10.73;;
20179;SDS011;10249;48.900;9.090;2022-09-17T12:40:04;7.50;;;7.20;;
20179;SDS011;10249;48.900;9.090;2022-09-17T12:42:36;8.43;;;7.93;;
20179;SDS011;10249;48.900;9.090;2022-09-17T12:45:12;7.80;;;7.20;;
20179;SDS011;10249;48.900;9.090;2022-09-17T12:50:34;9.87;;;9.37;;
20179;SDS011;10249;48.900;9.090;2022-09-17T12:53:08;8.77;;;8.37;;
20179;SDS011;10249;48.900;9.090;2022-09-17T12:55:42;8.47;;;8.07;;
20179;SDS011;10249;48.900;9.090;2022-09-17T12:58:14;9.33;;;8.93;;
20179;SDS011;10249;48.900;9.090;2022-09-17T13:00:47;9.30;;;8.90;;
20179;SDS011;10249;48.900;9.090;2022-09-17T13:03:17;9.70;;;9.30;;
20179;SDS011;10249;48.900;9.090;2022-09-17T13:06:03;10.47;;;9.60;;
20179;SDS011;10249;48.900;9.090;2022-09-17T13:08:40;10.23;;;9.70;;
20179;SDS011;10249;48.900;9.090;2022-09-17T13:11:25;9.20;;;8.90;;
20179;SDS011;10249;48.900;9.090;2022-09-17T13:13:55;10.83;;;10.33;;
20179;SDS011;10249;48.900;9.090;2022-09-17T13:16:24;10.93;;;10.30;;
20179;SDS011;10249;48.900;9.090;2022-09-17T13:18:55;10.07;;;9.60;;
20179;SDS011;10249;48.900;9.090;2022-09-17T13:21:28;10.00;;;9.70;;
20179;SDS011;10249;48.900;9.090;2022-09-17T13:23:57;9.20;;;8.80;;
20179;SDS011;10249;48.900;9.090;2022-09-17T13:26:31;9.30;;;8.93;;
20179;SDS011;10249;48.900;9.090;2022-09-17T13:28:59;9.50;;;9.20;;
20179;SDS011;10249;48.900;9.090;2022-09-17T13:36:52;10.23;;;9.73;;
20179;SDS011;10249;48.900;9.090;2022-09-17T13:39:36;10.37;;;9.87;;
20179;SDS011;10249;48.900;9.090;2022-09-17T13:42:05;10.40;;;9.90;;
20179;SDS011;10249;48.900;9.090;2022-09-17T13:44:35;10.23;;;9.83;;
20179;SDS011;10249;48.900;9.090;2022-09-17T13:47:07;11.47;;;10.80;;
20179;SDS011;10249;48.900;9.090;2022-09-17T13:49:35;10.77;;;10.27;;
20179;SDS011;10249;48.900;9.090;2022-09-17T13:52:10;10.47;;;9.87;;
20179;SDS011;10249;48.900;9.090;2022-09-17T13:54:37;10.90;;;10.30;;
20179;SDS011;10249;48.900;9.090;2022-09-17T13:57:06;11.10;;;10.43;;
20179;SDS011;10249;48.900;9.090;2022-09-17T13:59:35;10.47;;;9.90;;
20179;SDS011;10249;48.900;9.090;2022-09-17T14:02:25;10.77;;;10.30;;
20179;SDS011;10249;48.900;9.090;2022-09-17T14:04:53;12.17;;;11.40;;
20179;SDS011;10249;48.900;9.090;2022-09-17T14:07:32;11.60;;;10.80;;
20179;SDS011;10249;48.900;9.090;2022-09-17T14:10:00;12.53;;;12.03;;
20179;SDS011;10249;48.900;9.090;2022-09-17T14:15:34;13.63;;;12.87;;
20179;SDS011;10249;48.900;9.090;2022-09-17T14:18:22;13.83;;;13.13;;
20179;SDS011;10249;48.900;9.090;2022-09-17T14:20:52;13.50;;;12.83;;
20179;SDS011;10249;48.900;9.090;2022-09-17T14:23:20;13.37;;;12.77;;
20179;SDS011;10249;48.900;9.090;2022-09-17T14:25:48;13.13;;;12.30;;
20179;SDS011;10249;48.900;9.090;2022-09-17T14:28:19;14.23;;;13.30;;
20179;SDS011;10249;48.900;9.090;2022-09-17T14:30:51;14.00;;;13.30;;
20179;SDS011;10249;48.900;9.090;2022-09-17T14:33:19;14.13;;;13.30;;
20179;SDS011;10249;48.900;9.090;2022-09-17T14:35:51;14.37;;;13.67;;
20179;SDS011;10249;48.900;9.090;2022-09-17T14:38:19;13.23;;;12.73;;
20179;SDS011;10249;48.900;9.090;2022-09-17T14:40:48;14.60;;;13.80;;
20179;SDS011;10249;48.900;9.090;2022-09-17T14:43:20;13.40;;;12.80;;
20179;SDS011;10249;48.900;9.090;2022-09-17T14:45:51;14.80;;;14.10;;
20179;SDS011;10249;48.900;9.090;2022-09-17T14:48:25;13.60;;;12.90;;
20179;SDS011;10249;48.900;9.090;2022-09-17T14:51:00;13.37;;;12.77;;
20179;SDS011;10249;48.900;9.090;2022-09-17T14:53:36;13.17;;;12.57;;
20179;SDS011;10249;48.900;9.090;2022-09-17T14:56:06;13.60;;;12.90;;
20179;SDS011;10249;48.900;9.090;2022-09-17T14:58:35;13.30;;;12.70;;
20179;SDS011;10249;48.900;9.090;2022-09-17T15:01:03;14.37;;;13.60;;
20179;SDS011;10249;48.900;9.090;2022-09-17T15:03:30;13.63;;;13.03;;
20179;SDS011;10249;48.900;9.090;2022-09-17T15:05:58;13.03;;;12.43;;
20179;SDS011;10249;48.900;9.090;2022-09-17T15:08:25;12.90;;;12.30;;
20179;SDS011;10249;48.900;9.090;2022-09-17T15:10:55;13.20;;;12.20;;
20179;SDS011;10249;48.900;9.090;2022-09-17T15:13:25;12.00;;;11.50;;
20179;SDS011;10249;48.900;9.090;2022-09-17T15:15:57;11.70;;;11.20;;
20179;SDS011;10249;48.900;9.090;2022-09-17T15:18:29;12.20;;;11.50;;